createdAt,value
2023-04-18T00:02:18.787Z,7.50
2023-04-18T00:04:50.395Z,8.20
2023-04-18T00:07:19.297Z,8.40
2023-04-18T00:09:47.670Z,8.83
2023-04-18T00:12:17.743Z,7.87
2023-04-18T00:14:46.685Z,8.17
2023-04-18T00:17:16.206Z,7.97
2023-04-18T00:19:47.290Z,8.20
2023-04-18T00:22:22.348Z,8.20
2023-04-18T00:24:51.414Z,7.63
2023-04-18T00:27:23.405Z,7.57
2023-04-18T00:29:52.591Z,8.53
2023-04-18T00:32:21.594Z,7.10
2023-04-18T00:34:50.761Z,8.43
2023-04-18T00:37:20.999Z,7.70
2023-04-18T00:39:53.913Z,8.93
2023-04-18T00:42:24.424Z,8.07
2023-04-18T00:44:53.642Z,8.57
2023-04-18T00:47:23.856Z,7.57
2023-04-18T00:49:53.030Z,7.57
2023-04-18T00:52:22.866Z,8.27
2023-04-18T00:54:51.485Z,8.23
2023-04-18T00:57:19.890Z,8.33
2023-04-18T00:59:48.242Z,8.17
2023-04-18T01:02:17.251Z,7.43
2023-04-18T01:04:45.639Z,7.63
2023-04-18T01:07:13.958Z,7.97
2023-04-18T01:09:43.502Z,7.63
2023-04-18T01:12:11.744Z,7.60
2023-04-18T01:14:42.937Z,7.67
2023-04-18T01:17:11.173Z,7.33
2023-04-18T01:19:39.363Z,7.70
2023-04-18T01:22:07.843Z,7.53
2023-04-18T01:24:37.418Z,7.00
2023-04-18T01:27:05.874Z,7.80
2023-04-18T01:29:34.161Z,7.90
2023-04-18T01:32:03.006Z,7.40
2023-04-18T01:34:31.798Z,7.23
2023-04-18T01:37:00.526Z,7.67
2023-04-18T01:39:29.138Z,7.07
2023-04-18T01:41:58.783Z,7.50
2023-04-18T01:44:27.156Z,7.70
2023-04-18T01:46:55.542Z,7.20
2023-04-18T01:49:23.949Z,7.13
2023-04-18T01:51:52.334Z,8.20
2023-04-18T01:54:20.694Z,8.17
2023-04-18T01:56:48.883Z,7.87
2023-04-18T01:59:18.645Z,8.20
2023-04-18T02:01:47.122Z,8.00
2023-04-18T02:04:15.572Z,8.00
2023-04-18T02:06:43.913Z,8.00
2023-04-18T02:09:12.309Z,7.20
2023-04-18T02:11:40.517Z,7.60
2023-04-18T02:14:08.710Z,7.27
2023-04-18T02:16:38.761Z,7.87
2023-04-18T02:19:07.388Z,7.93
2023-04-18T02:21:35.730Z,7.73
2023-04-18T02:24:03.929Z,7.43
2023-04-18T02:26:32.295Z,7.20
2023-04-18T02:29:00.457Z,8.03
2023-04-18T02:31:29.199Z,7.87
2023-04-18T02:33:58.886Z,7.77
2023-04-18T02:36:28.012Z,7.23
2023-04-18T02:38:56.592Z,8.63
2023-04-18T02:41:24.982Z,7.30
2023-04-18T02:43:53.176Z,8.47
2023-04-18T02:46:21.488Z,8.57
2023-04-18T02:48:49.901Z,8.03
2023-04-18T02:51:19.972Z,8.00
2023-04-18T02:53:54.856Z,8.10
2023-04-18T02:56:23.462Z,7.50
2023-04-18T02:58:52.944Z,7.80
2023-04-18T03:01:21.196Z,7.60
2023-04-18T03:03:49.519Z,7.70
2023-04-18T03:06:19.065Z,7.50
2023-04-18T03:08:47.306Z,7.37
2023-04-18T03:11:15.472Z,8.17
2023-04-18T03:13:43.689Z,7.93
2023-04-18T03:16:12.040Z,7.40
2023-04-18T03:18:40.359Z,7.00
2023-04-18T03:21:08.564Z,7.90
2023-04-18T03:23:38.258Z,7.40
2023-04-18T03:26:07.844Z,6.90
2023-04-18T03:28:36.335Z,7.00
2023-04-18T03:31:04.570Z,7.27
2023-04-18T03:33:32.824Z,7.50
2023-04-18T03:36:01.065Z,7.37
2023-04-18T03:38:29.337Z,7.87
2023-04-18T03:40:59.026Z,7.00
2023-04-18T03:43:27.251Z,6.87
2023-04-18T03:45:55.648Z,7.67
2023-04-18T03:48:23.866Z,7.70
2023-04-18T03:50:52.068Z,7.03
2023-04-18T03:53:20.505Z,8.07
2023-04-18T03:55:48.681Z,7.13
2023-04-18T03:58:23.484Z,7.40
2023-04-18T04:00:51.868Z,7.73
2023-04-18T04:03:20.699Z,8.10
2023-04-18T04:05:49.113Z,8.23
2023-04-18T04:08:17.502Z,7.53
2023-04-18T04:10:45.860Z,8.10
2023-04-18T04:13:14.088Z,8.20
2023-04-18T04:15:43.761Z,7.87
2023-04-18T04:18:14.471Z,7.63
2023-04-18T04:20:42.700Z,7.83
2023-04-18T04:23:11.098Z,7.30
2023-04-18T04:25:40.986Z,8.17
2023-04-18T04:28:09.261Z,8.13
2023-04-18T04:30:38.197Z,8.30
2023-04-18T04:33:09.022Z,8.23
2023-04-18T04:35:37.502Z,7.97
2023-04-18T04:38:05.790Z,8.60
2023-04-18T04:40:34.007Z,7.73
2023-04-18T04:43:02.291Z,8.80
2023-04-18T04:45:34.125Z,7.80
2023-04-18T04:48:02.890Z,9.23
2023-04-18T04:50:34.651Z,7.47
2023-04-18T04:53:02.968Z,9.17
2023-04-18T04:55:31.349Z,7.60
2023-04-18T04:58:01.700Z,7.40
2023-04-18T05:00:33.444Z,8.27
2023-04-18T05:03:02.260Z,7.93
2023-04-18T05:05:32.861Z,7.27
2023-04-18T05:08:01.190Z,8.70
2023-04-18T05:10:29.480Z,8.13
2023-04-18T05:12:58.177Z,9.00
2023-04-18T05:15:29.740Z,9.03
2023-04-18T05:17:58.367Z,9.10
2023-04-18T05:20:28.569Z,9.00
2023-04-18T05:22:58.460Z,10.13
2023-04-18T05:25:31.754Z,9.17
2023-04-18T05:28:01.720Z,10.83
2023-04-18T05:30:33.962Z,9.93
2023-04-18T05:33:03.281Z,9.70
2023-04-18T05:35:32.772Z,10.50
2023-04-18T05:38:03.172Z,9.00
2023-04-18T05:40:43.566Z,8.97
2023-04-18T05:43:14.857Z,10.23
2023-04-18T05:45:46.069Z,9.67
2023-04-18T05:48:14.802Z,9.10
2023-04-18T05:50:44.788Z,10.67
2023-04-18T05:53:14.443Z,9.30
2023-04-18T05:55:42.678Z,9.70
2023-04-18T05:58:10.927Z,9.00
2023-04-18T06:00:39.128Z,9.30
2023-04-18T06:03:10.115Z,9.70
2023-04-18T06:05:40.941Z,10.13
2023-04-18T06:08:09.293Z,9.17
2023-04-18T06:10:41.497Z,8.83
2023-04-18T06:13:10.174Z,9.30
2023-04-18T06:15:38.584Z,9.40
2023-04-18T06:18:06.941Z,10.77
2023-04-18T06:20:35.973Z,10.30
2023-04-18T06:23:04.575Z,8.83
2023-04-18T06:25:34.872Z,9.50
2023-04-18T06:28:06.840Z,10.27
2023-04-18T06:30:35.742Z,9.37
2023-04-18T06:33:04.906Z,9.70
2023-04-18T06:35:39.804Z,9.47
2023-04-18T06:38:13.920Z,9.77
2023-04-18T06:40:43.895Z,9.80
2023-04-18T06:43:15.058Z,8.70
2023-04-18T06:45:52.415Z,7.90
2023-04-18T06:48:42.110Z,8.37
2023-04-18T06:51:17.731Z,8.90
2023-04-18T06:53:48.222Z,8.23
2023-04-18T06:56:18.893Z,8.23
2023-04-18T06:59:15.215Z,7.97
2023-04-18T07:02:05.552Z,7.60
2023-04-18T07:04:44.497Z,8.20
2023-04-18T07:07:14.844Z,8.17
2023-04-18T07:09:44.189Z,8.40
2023-04-18T07:12:13.319Z,7.17
2023-04-18T07:18:43.182Z,7.40
2023-04-18T07:22:07.046Z,6.27
2023-04-18T07:25:11.687Z,7.00
2023-04-18T07:28:15.132Z,6.40
2023-04-18T07:30:51.740Z,6.10
2023-04-18T07:33:22.817Z,5.90
2023-04-18T07:36:15.482Z,6.17
2023-04-18T07:38:49.983Z,6.53
2023-04-18T07:41:33.503Z,7.13
2023-04-18T07:44:14.447Z,6.80
2023-04-18T07:46:47.034Z,6.37
2023-04-18T07:49:16.158Z,6.00
2023-04-18T07:51:46.418Z,5.13
2023-04-18T07:54:15.375Z,5.97
2023-04-18T07:56:44.461Z,5.80
2023-04-18T07:59:13.104Z,5.13
2023-04-18T08:01:43.058Z,5.50
2023-04-18T08:04:15.840Z,6.27
2023-04-18T08:06:44.295Z,5.90
2023-04-18T08:09:13.227Z,6.20
2023-04-18T08:11:43.332Z,6.00
2023-04-18T08:14:11.960Z,5.40
2023-04-18T08:16:40.859Z,6.20
2023-04-18T08:19:09.751Z,6.13
2023-04-18T08:21:45.927Z,5.80
2023-04-18T08:24:14.653Z,6.03
2023-04-18T08:26:43.197Z,5.60
2023-04-18T08:29:11.868Z,5.90
2023-04-18T08:31:40.965Z,6.40
2023-04-18T08:34:09.503Z,5.70
2023-04-18T08:36:37.948Z,6.43
2023-04-18T08:39:08.985Z,5.60
2023-04-18T08:41:39.268Z,5.70
2023-04-18T08:44:15.926Z,5.30
2023-04-18T08:47:06.517Z,6.07
2023-04-18T08:49:43.428Z,6.00
2023-04-18T08:52:16.706Z,5.70
2023-04-18T08:54:49.059Z,5.97
2023-04-18T08:57:27.263Z,6.60
2023-04-18T09:00:13.879Z,5.60
2023-04-18T09:02:43.695Z,5.73
2023-04-18T09:05:14.258Z,6.33
2023-04-18T09:07:43.327Z,5.73
2023-04-18T09:10:14.014Z,6.10
2023-04-18T09:12:50.425Z,5.40
2023-04-18T09:15:22.477Z,6.13
2023-04-18T09:17:53.437Z,5.23
2023-04-18T09:20:37.413Z,5.10
2023-04-18T09:23:11.622Z,5.37
2023-04-18T09:25:48.215Z,5.20
2023-04-18T09:28:24.461Z,5.60
2023-04-18T09:30:54.574Z,5.70
2023-04-18T09:33:29.556Z,5.47
2023-04-18T09:36:17.792Z,5.67
2023-04-18T09:38:51.095Z,5.97
2023-04-18T09:41:23.513Z,5.17
2023-04-18T09:44:14.350Z,5.27
2023-04-18T09:46:47.169Z,5.50
2023-04-18T09:49:17.456Z,5.47
2023-04-18T09:51:46.879Z,5.60
2023-04-18T09:54:20.555Z,5.13
2023-04-18T09:56:53.975Z,5.90
2023-04-18T09:59:41.047Z,4.70
2023-04-18T10:02:16.366Z,5.90
2023-04-18T10:04:47.362Z,4.73
2023-04-18T10:07:20.153Z,5.10
2023-04-18T10:09:50.412Z,5.50
2023-04-18T10:12:21.221Z,4.90
2023-04-18T10:14:51.384Z,4.90
2023-04-18T10:17:21.716Z,5.67
2023-04-18T10:20:06.780Z,4.27
2023-04-18T10:22:37.651Z,4.83
2023-04-18T10:25:09.209Z,4.90
2023-04-18T10:28:00.165Z,4.87
2023-04-18T10:30:56.660Z,4.77
2023-04-18T10:33:34.218Z,4.93
2023-04-18T10:36:16.203Z,5.00
2023-04-18T10:38:49.631Z,5.27
2023-04-18T10:41:23.236Z,5.23
2023-04-18T10:44:24.912Z,5.13
2023-04-18T10:47:33.478Z,4.40
2023-04-18T10:50:07.041Z,4.43
2023-04-18T10:52:35.820Z,5.20
2023-04-18T10:55:17.591Z,4.60
2023-04-18T10:57:47.182Z,4.77
2023-04-18T11:00:18.780Z,5.33
2023-04-18T11:02:55.935Z,5.20
2023-04-18T11:05:29.524Z,5.00
2023-04-18T11:08:03.784Z,5.20
2023-04-18T11:10:33.038Z,5.40
2023-04-18T11:13:04.911Z,5.73
2023-04-18T11:15:39.773Z,5.80
2023-04-18T11:18:10.348Z,5.23
2023-04-18T11:20:40.866Z,5.93
2023-04-18T11:23:18.145Z,5.40
2023-04-18T11:25:47.209Z,5.07
2023-04-18T11:28:20.543Z,5.13
2023-04-18T11:30:50.345Z,4.63
2023-04-18T11:33:18.668Z,5.40
2023-04-18T11:35:47.735Z,4.70
2023-04-18T11:38:17.029Z,4.57
2023-04-18T11:40:49.296Z,5.30
2023-04-18T11:43:22.437Z,5.00
2023-04-18T11:45:57.211Z,4.50
2023-04-18T11:48:34.757Z,5.00
2023-04-18T11:51:03.157Z,5.43
2023-04-18T11:53:35.595Z,5.00
2023-04-18T11:56:04.960Z,5.17
2023-04-18T11:58:33.891Z,5.30
2023-04-18T12:01:19.627Z,5.00
2023-04-18T12:04:01.750Z,5.53
2023-04-18T12:06:48.620Z,4.87
2023-04-18T12:09:17.647Z,4.70
2023-04-18T12:11:57.946Z,4.10
2023-04-18T12:14:26.378Z,4.77
2023-04-18T12:16:56.594Z,4.60
2023-04-18T12:19:27.627Z,4.80
2023-04-18T12:21:57.856Z,5.30
2023-04-18T12:24:26.432Z,5.40
2023-04-18T12:26:54.718Z,4.90
2023-04-18T12:29:23.036Z,4.87
2023-04-18T12:31:51.620Z,4.10
2023-04-18T12:34:21.472Z,4.50
2023-04-18T12:36:49.757Z,4.97
2023-04-18T12:39:17.973Z,5.00
2023-04-18T12:41:47.665Z,5.07
2023-04-18T12:44:17.759Z,4.67
2023-04-18T12:46:46.100Z,4.80
2023-04-18T12:49:14.670Z,4.07
2023-04-18T12:51:44.598Z,5.57
2023-04-18T12:54:15.565Z,4.80
2023-04-18T12:56:45.963Z,5.20
2023-04-18T12:59:14.485Z,4.47
2023-04-18T13:01:42.967Z,5.00
2023-04-18T13:04:12.906Z,4.90
2023-04-18T13:06:41.656Z,4.13
2023-04-18T13:09:11.522Z,4.90
2023-04-18T13:11:39.827Z,4.60
2023-04-18T13:14:08.047Z,4.80
2023-04-18T13:16:36.373Z,3.90
2023-04-18T13:19:05.125Z,4.63
2023-04-18T13:21:33.458Z,4.50
2023-04-18T13:24:01.903Z,4.20
2023-04-18T13:26:35.557Z,4.80
2023-04-18T13:29:04.055Z,4.67
2023-04-18T13:31:32.375Z,4.30
2023-04-18T13:34:00.722Z,4.90
2023-04-18T13:36:28.986Z,4.70
2023-04-18T13:38:57.687Z,4.50
2023-04-18T13:41:25.951Z,5.33
2023-04-18T13:43:55.525Z,4.67
2023-04-18T13:46:26.498Z,4.90
2023-04-18T13:48:54.729Z,4.30
2023-04-18T13:51:22.896Z,5.47
2023-04-18T13:53:51.572Z,4.67
2023-04-18T13:56:19.889Z,4.40
2023-04-18T13:58:48.061Z,4.20
2023-04-18T14:01:18.874Z,5.73
2023-04-18T14:03:47.680Z,5.37
2023-04-18T14:06:16.054Z,4.80
2023-04-18T14:08:44.266Z,4.67
2023-04-18T14:11:12.532Z,5.30
2023-04-18T14:13:40.722Z,5.30
2023-04-18T14:16:09.835Z,5.47
2023-04-18T14:18:39.800Z,5.30
2023-04-18T14:21:08.458Z,5.03
2023-04-18T14:23:36.732Z,5.80
2023-04-18T14:26:06.565Z,6.17
2023-04-18T14:28:34.863Z,4.57
2023-04-18T14:31:06.242Z,5.53
2023-04-18T14:33:34.962Z,4.90
2023-04-18T14:36:05.021Z,5.20
2023-04-18T14:38:33.331Z,4.97
2023-04-18T14:41:01.821Z,5.43
2023-04-18T14:43:30.198Z,5.23
2023-04-18T14:45:59.582Z,7.30
2023-04-18T14:48:28.325Z,5.93
2023-04-18T14:51:00.143Z,5.80
2023-04-18T14:53:30.539Z,5.97
2023-04-18T14:56:00.773Z,5.90
2023-04-18T14:58:29.158Z,5.50
2023-04-18T15:00:57.593Z,5.83
2023-04-18T15:03:26.050Z,5.50
2023-04-18T15:05:55.033Z,5.73
2023-04-18T15:08:23.677Z,5.93
2023-04-18T15:10:56.426Z,5.87
2023-04-18T15:13:25.224Z,5.93
2023-04-18T15:15:54.739Z,6.43
2023-04-18T15:18:23.591Z,5.90
2023-04-18T15:20:52.399Z,6.20
2023-04-18T15:23:21.070Z,5.67
2023-04-18T15:25:49.406Z,5.53
2023-04-18T15:28:19.909Z,5.27
2023-04-18T15:30:50.813Z,5.63
2023-04-18T15:33:37.141Z,5.60
2023-04-18T15:36:06.135Z,6.03
2023-04-18T15:38:34.809Z,5.53
2023-04-18T15:41:03.018Z,5.30
2023-04-18T15:43:32.735Z,5.83
2023-04-18T15:46:01.009Z,5.53
2023-04-18T15:48:34.303Z,5.43
2023-04-18T15:51:03.249Z,5.40
2023-04-18T15:53:31.581Z,5.97
2023-04-18T15:56:01.936Z,5.60
2023-04-18T15:58:30.309Z,5.93
2023-04-18T16:01:00.182Z,5.40
2023-04-18T16:03:28.508Z,5.23
2023-04-18T16:05:56.869Z,5.93
2023-04-18T16:08:25.206Z,5.73
2023-04-18T16:10:53.755Z,5.00
2023-04-18T16:13:22.043Z,5.00
2023-04-18T16:15:50.506Z,4.83
2023-04-18T16:18:20.168Z,4.87
2023-04-18T16:20:48.432Z,4.50
2023-04-18T16:23:16.809Z,5.00
2023-04-18T16:25:45.121Z,5.73
2023-04-18T16:28:13.308Z,4.77
2023-04-18T16:30:43.780Z,4.73
2023-04-18T16:33:12.198Z,4.77
2023-04-18T16:35:42.243Z,4.53
2023-04-18T16:38:10.502Z,4.40
2023-04-18T16:40:38.738Z,4.80
2023-04-18T16:43:06.999Z,4.20
2023-04-18T16:45:35.373Z,4.27
2023-04-18T16:48:18.780Z,4.50
2023-04-18T16:50:48.610Z,4.77
2023-04-18T16:53:20.053Z,4.70
2023-04-18T16:55:50.213Z,4.60
2023-04-18T16:58:18.581Z,4.53
2023-04-18T17:00:48.412Z,4.43
2023-04-18T17:03:16.947Z,4.20
2023-04-18T17:05:46.385Z,4.40
2023-04-18T17:08:16.122Z,3.93
2023-04-18T17:10:44.405Z,4.57
2023-04-18T17:13:12.656Z,4.33
2023-04-18T17:15:41.312Z,3.53
2023-04-18T17:18:09.524Z,4.67
2023-04-18T17:20:37.835Z,4.60
2023-04-18T17:23:06.172Z,4.17
2023-04-18T17:25:36.577Z,4.00
2023-04-18T17:28:05.256Z,5.07
2023-04-18T17:30:33.662Z,4.30
2023-04-18T17:33:01.845Z,4.67
2023-04-18T17:35:30.079Z,4.13
2023-04-18T17:37:58.327Z,4.30
2023-04-18T17:40:26.754Z,3.90
2023-04-18T17:42:56.606Z,3.90
2023-04-18T17:45:25.505Z,3.97
2023-04-18T17:47:54.679Z,3.87
2023-04-18T17:50:22.999Z,3.70
2023-04-18T17:52:51.242Z,4.00
2023-04-18T17:55:19.881Z,3.67
2023-04-18T17:57:48.184Z,4.07
2023-04-18T18:00:19.250Z,4.00
2023-04-18T18:02:47.716Z,3.73
2023-04-18T18:05:18.612Z,3.87
2023-04-18T18:07:48.082Z,4.20
2023-04-18T18:10:19.340Z,4.30
2023-04-18T18:12:47.600Z,3.47
2023-04-18T18:15:17.310Z,3.93
2023-04-18T18:17:45.649Z,3.60
2023-04-18T18:20:14.517Z,4.40
2023-04-18T18:22:43.719Z,4.13
2023-04-18T18:25:12.304Z,4.50
2023-04-18T18:27:44.903Z,4.47
2023-04-18T18:30:13.798Z,4.13
2023-04-18T18:32:43.949Z,3.90
2023-04-18T18:35:14.524Z,3.90
2023-04-18T18:37:44.299Z,4.33
2023-04-18T18:40:13.434Z,4.23
2023-04-18T18:42:42.619Z,4.10
2023-04-18T18:45:11.598Z,4.10
2023-04-18T18:47:40.402Z,4.30
2023-04-18T18:50:11.333Z,4.63
2023-04-18T18:52:43.043Z,3.83
2023-04-18T18:55:12.295Z,4.30
2023-04-18T18:57:40.750Z,4.20
2023-04-18T19:00:11.873Z,4.43
2023-04-18T19:02:40.448Z,4.40
2023-04-18T19:05:12.430Z,4.53
2023-04-18T19:07:42.294Z,4.90
2023-04-18T19:10:11.685Z,4.60
2023-04-18T19:12:39.975Z,4.83
2023-04-18T19:15:09.658Z,4.80
2023-04-18T19:17:37.950Z,4.80
2023-04-18T19:20:07.542Z,4.43
2023-04-18T19:22:37.557Z,4.20
2023-04-18T19:25:06.839Z,4.57
2023-04-18T19:27:35.813Z,4.40
2023-04-18T19:30:04.201Z,4.90
2023-04-18T19:32:35.293Z,3.83
2023-04-18T19:35:04.501Z,4.20
2023-04-18T19:37:32.793Z,4.60
2023-04-18T19:40:02.930Z,4.00
2023-04-18T19:42:31.302Z,4.60
2023-04-18T19:45:00.308Z,4.70
2023-04-18T19:47:32.196Z,4.27
2023-04-18T19:50:00.843Z,4.50
2023-04-18T19:52:29.065Z,4.03
2023-04-18T19:54:57.302Z,4.47
2023-04-18T19:57:28.768Z,4.43
2023-04-18T19:59:56.984Z,4.03
2023-04-18T20:02:25.392Z,4.37
2023-04-18T20:04:53.984Z,3.90
2023-04-18T20:07:23.677Z,4.57
2023-04-18T20:09:54.460Z,4.40
2023-04-18T20:12:23.336Z,4.13
2023-04-18T20:14:53.314Z,3.93
2023-04-18T20:17:21.663Z,5.10
2023-04-18T20:19:50.930Z,4.47
2023-04-18T20:22:20.008Z,4.23
2023-04-18T20:24:49.117Z,4.70
2023-04-18T20:27:20.306Z,5.20
2023-04-18T20:29:48.656Z,4.10
2023-04-18T20:32:18.290Z,4.17
2023-04-18T20:34:47.071Z,4.27
2023-04-18T20:37:19.662Z,5.13
2023-04-18T20:39:47.965Z,5.30
2023-04-18T20:42:16.210Z,4.37
2023-04-18T20:44:46.613Z,5.17
2023-04-18T20:47:15.892Z,4.90
2023-04-18T20:49:45.825Z,4.90
2023-04-18T20:52:14.356Z,4.27
2023-04-18T20:54:42.768Z,5.13
2023-04-18T20:57:11.117Z,5.50
2023-04-18T20:59:39.421Z,4.50
2023-04-18T21:02:08.446Z,5.20
2023-04-18T21:04:37.151Z,4.37
2023-04-18T21:07:06.843Z,4.87
2023-04-18T21:09:36.573Z,5.10
2023-04-18T21:12:06.046Z,4.47
2023-04-18T21:14:34.303Z,4.97
2023-04-18T21:17:02.714Z,4.37
2023-04-18T21:19:30.892Z,4.23
2023-04-18T21:21:59.054Z,5.30
2023-04-18T21:24:28.763Z,5.57
2023-04-18T21:26:57.683Z,5.37
2023-04-18T21:29:25.948Z,5.57
2023-04-18T21:31:54.609Z,5.93
2023-04-18T21:34:22.949Z,5.77
2023-04-18T21:36:51.178Z,5.40
2023-04-18T21:39:19.428Z,5.63
2023-04-18T21:41:49.081Z,5.70
2023-04-18T21:44:18.828Z,5.30
2023-04-18T21:46:47.113Z,5.30
2023-04-18T21:49:15.397Z,5.60
2023-04-18T21:51:44.754Z,5.77
2023-04-18T21:54:13.251Z,5.27
2023-04-18T21:56:43.800Z,5.00
2023-04-18T21:59:13.467Z,5.97
2023-04-18T22:01:47.523Z,4.93
2023-04-18T22:04:21.194Z,5.43
2023-04-18T22:06:49.810Z,4.87
2023-04-18T22:09:19.284Z,5.00
2023-04-18T22:11:47.564Z,5.60
2023-04-18T22:14:17.312Z,5.43
2023-04-18T22:16:45.908Z,5.83
2023-04-18T22:19:15.405Z,5.70
2023-04-18T22:21:43.798Z,5.03
2023-04-18T22:24:12.100Z,5.43
2023-04-18T22:26:41.362Z,5.30
2023-04-18T22:29:09.726Z,5.73
2023-04-18T22:31:39.548Z,5.63
2023-04-18T22:34:07.854Z,4.90
2023-04-18T22:36:36.264Z,5.13
2023-04-18T22:39:04.632Z,5.00
2023-04-18T22:41:33.118Z,4.37
2023-04-18T22:44:01.526Z,4.73
2023-04-18T22:46:30.059Z,4.27
2023-04-18T22:49:00.060Z,4.47
2023-04-18T22:51:29.006Z,5.10
2023-04-18T22:53:57.873Z,4.63
2023-04-18T22:56:26.682Z,5.10
2023-04-18T22:58:55.178Z,4.60
2023-04-18T23:01:23.822Z,4.70
2023-04-18T23:03:52.519Z,5.07
2023-04-18T23:06:22.538Z,4.80
2023-04-18T23:08:51.224Z,5.50
2023-04-18T23:11:19.657Z,5.23
2023-04-18T23:13:48.432Z,5.93
2023-04-18T23:16:17.197Z,5.00
2023-04-18T23:18:45.620Z,5.57
2023-04-18T23:21:14.364Z,5.10
2023-04-18T23:23:44.038Z,6.00
2023-04-18T23:26:15.611Z,5.67
2023-04-18T23:28:44.109Z,4.93
2023-04-18T23:31:12.440Z,6.00
2023-04-18T23:33:40.778Z,5.50
2023-04-18T23:36:09.718Z,5.80
2023-04-18T23:38:38.477Z,5.13
2023-04-18T23:41:08.342Z,5.80
2023-04-18T23:43:36.758Z,4.80
2023-04-18T23:46:05.224Z,5.67
2023-04-18T23:48:33.706Z,4.90
2023-04-18T23:51:02.357Z,5.00
2023-04-18T23:53:31.095Z,4.80
2023-04-18T23:55:59.711Z,5.60
2023-04-18T23:58:31.598Z,5.40
